Norwich, Kansas
Current Conditions -  °F | °C
As of 8:53 AM on Monday 24 Nov 2014 (Local Time) from KICT Reporting Station
Scattered Clouds Scattered Clouds  
Wind Chill: 30°   Ceiling: Unl
Heat Index: 39°   Visibility: 10mi
Dew Point: 23°   Wind: 16mph
Humidity: 53%   Direction: 280°W
Pressure: 29.85"   Gusts: NA
Location:  37.46°N, 97.85°W
Report Text: KICT 241453Z 28014KT 10SM FEW120 SCT150 04/M05 A2985 RMK AO2 SLP112 T00391050 51023 $
Loading
Personal Weather Stations






























Interactive Weather Map New forecast layout! Learn more

10-Day Weather Forecast

Advertisements
Track Severe Weather on mobile